Quesnel Airport
CYQZ : now visible

Airfield :











YOU CAN JOIN US ON...

 
LOGIN :

Register | Disclaimer

   EN    FR    IT 

 









Legend :    VFR   Marginal VFR   IFR   Intensive IFR   Very Intensive IFR
Visi :
Ceiling :
>= 8 km
>= 3000ft
5 to 8 km
1000 to 3000 ft
1500m to 5 km
500 to 1000 ft
800 to 1500m
200 to 500 ft
< 800m
< 200 ft
Symbols :   Thunderstorms  Fog  Heavy snow  Heavy precipitations  Wind > 20 kt






- Airport Elevation : 1789 ft
- IATA code : YQZ


CYQZ - Quesnel

CURRENT METAR :
  • 281400Z AUTO 36002KT 9SM BKN055 OVC068 M01/M01 A2979 RMK SLP113

EXPIRED METARs :
  • 281300Z AUTO 33006KT 9SM OVC055 M00/M01 A2978 RMK SLP110
  • 281250Z AUTO 32005KT 9SM OVC050 M00/M01 A2978 RMK SLP107
  • 281240Z AUTO 35004KT 320V040 9SM -SN OVC044 M00/M02 A2977 RMK SLP106
  • 281225Z AUTO 32007KT 6SM -SN BKN036 OVC042 M00/M02 A2977 RMK SLP106
  • 281219Z AUTO 30006KT 5SM -SN -UP BKN029 OVC042 M00/M02 A2977 RMK SLP106
  • 281208Z AUTO 31005KT 9SM -RA -UP OVC029 01/M02 A2977 RMK SLP104

TAF TAF CYQZ
Valid from the 28 at 12:00 until the 29 at 00:00 UTC


281147Z 2812/2824 VRB03KT P6SM OVC040
TEMPO 2812/2818 3SM -SHSN OVC020
FM281800 16005KT P6SM SCT040 RMK FCST BASED ON AUTO OBS. NXT FCST BY 281900Z



MET'MAP, your aeronautical weather chart ! - Copyright ORBIFLY December 2007 - Disclaimer

ORBIFLY MET'MAP TEAM :

Programming & Development : Alexandra Zaïnal
Concept & original design : Baudouin d'Aumeries
Assistance for programming : Marc-Olivier Méhu
Technical & hardware support : Manuel Goepfert

Contact : metmap@orbifly.com




SOURCES & CREDITS :

   NOAA       Earth
Advisory